Climatologie pour Saint-Brevin les Pins
Jour • Résumé pour avril 5, 2017 Système :  Métrique    Anglais   Mixte
« - 1 jour
+ 1 jour »
Jour Semaine Mois Année Personnalisé
  Maximum : Minimum : Moyenne :
Température sous abri : -17.8 °C -12.9 °C -10.8 °C
Point de rosée : -17.8 °C -14.3 °C -12.6 °C
Humidité : Humidity % 52 % 81 %
Vitesse du vent : 0 km/h 0 km/h 12.6 km/h
Rafale : 0 km/h - -
Direction :- - East
Pression : 0 hPa 34784.4 hPa -
Précipitations : 0 mm    
Historical Graphs
 
 
Tableau de données pour avril 5, 2017
Heure Tempé Pt rosée Pression Vent Vitesse Rafale Humidité Taux pluie (/hr) Soleil
-17.8 °C -17.8 °C 0 hPa Calm     Humidity % 0 mm SolarRadiationWatts/m^2 W/m2 Conditions
00:00 -11.7 °C -12.6 °C 34784.4 hPa NNE 5.1 km/h 23.3 km/h 89 % 0 mm 0 W/m2
00:05 -11.6 °C -12.6 °C 34784.4 hPa NE 10.3 km/h 20.8 km/h 89 % 0 mm 0 W/m2
00:10 -11.6 °C -12.6 °C 34784.4 hPa North 18.2 km/h 20.8 km/h 89 % 0 mm 0 W/m2
00:15 -11.7 °C -12.6 °C 34784.4 hPa NNE 18.2 km/h 25.9 km/h 89 % 0 mm 0 W/m2
00:20 -11.7 °C -12.6 °C 34784.4 hPa NNW 12.9 km/h 25.9 km/h 90 % 0 mm 0 W/m2
00:25 -11.7 °C -12.6 °C 34784.4 hPa North 7.7 km/h 28.5 km/h 90 % 0 mm 0 W/m2
00:30 -11.7 °C -12.4 °C 34784.4 hPa North 15.6 km/h 28.5 km/h 91 % 0 mm 0 W/m2
00:35 -11.7 °C -12.4 °C 34784.4 hPa NNE 2.6 km/h 31.1 km/h 91 % 0 mm 0 W/m2
00:40 -11.7 °C -12.6 °C 34784.4 hPa NNE 5.1 km/h 31.1 km/h 90 % 0 mm 0 W/m2
00:45 -11.8 °C -12.6 °C 34784.4 hPa ENE 12.9 km/h 25.9 km/h 91 % 0 mm 0 W/m2
00:50 -11.9 °C -12.7 °C 34784.4 hPa NNE 2.6 km/h 31.1 km/h 91 % 0 mm 0 W/m2
00:55 -11.8 °C -12.6 °C 34784.4 hPa North 10.3 km/h 31.1 km/h 91 % 0 mm 0 W/m2
01:00 -11.9 °C -12.7 °C 34784.4 hPa North 10.3 km/h 23.3 km/h 91 % 0 mm 0 W/m2
01:05 -12.1 °C -12.8 °C 34797.9 hPa North 15.6 km/h 23.3 km/h 91 % 0 mm 0 W/m2
01:10 -12.1 °C -12.7 °C 34797.9 hPa North 10.3 km/h 25.9 km/h 92 % 0 mm 0 W/m2
01:15 -12.1 °C -12.8 °C 34784.4 hPa NNE 10.3 km/h 25.9 km/h 92 % 0 mm 0 W/m2
01:20 -12.1 °C -12.8 °C 34784.4 hPa NNE 7.7 km/h 23.3 km/h 92 % 0 mm 0 W/m2
01:25 -12.2 °C -12.9 °C 34784.4 hPa North 2.6 km/h 23.3 km/h 92 % 0 mm 0 W/m2
01:30 -12.3 °C -12.9 °C 34797.9 hPa North 7.7 km/h 15.6 km/h 93 % 0 mm 0 W/m2
01:35 -12.3 °C -12.9 °C 34797.9 hPa NE 5.1 km/h 20.8 km/h 93 % 0 mm 0 W/m2
01:40 -12.3 °C -12.9 °C 34797.9 hPa NE 5.1 km/h 20.8 km/h 93 % 0 mm 0 W/m2
01:45 -12.4 °C -13 °C 34784.4 hPa NNW 5.1 km/h 18.2 km/h 93 % 0 mm 0 W/m2
01:50 -12.4 °C -12.9 °C 34784.4 hPa NW 10.3 km/h 23.3 km/h 94 % 0 mm 0 W/m2
01:55 -12.4 °C -13 °C 34797.9 hPa North 12.9 km/h 23.3 km/h 93 % 0 mm 0 W/m2
02:00 -12.5 °C -13 °C 34784.4 hPa North 15.6 km/h 23.3 km/h 94 % 0 mm 0 W/m2
02:05 -12.6 °C -13.1 °C 34784.4 hPa NNE 5.1 km/h 23.3 km/h 94 % 0 mm 0 W/m2
02:10 -12.6 °C -13.1 °C 34784.4 hPa NE 12.9 km/h 18.2 km/h 94 % 0 mm 0 W/m2
02:15 -12.6 °C -13.1 °C 34784.4 hPa NE 5.1 km/h 20.8 km/h 94 % 0 mm 0 W/m2
02:20 -12.5 °C -13 °C 34784.4 hPa NNE 15.6 km/h 23.3 km/h 94 % 0 mm 0 W/m2
02:25 -12.5 °C -13 °C 34797.9 hPa WNW 2.6 km/h 23.3 km/h 94 % 0 mm 0 W/m2
02:30 -12.4 °C -12.9 °C 34797.9 hPa NNE 2.6 km/h 23.3 km/h 95 % 0 mm 0 W/m2
02:35 -12.6 °C -13.1 °C 34797.9 hPa NNE 5.1 km/h 23.3 km/h 94 % 0 mm 0 W/m2
02:40 -12.6 °C -13 °C 34797.9 hPa ENE 10.3 km/h 23.3 km/h 95 % 0 mm 0 W/m2
02:45 -12.6 °C -12.9 °C 34797.9 hPa NNE 10.3 km/h 23.3 km/h 95 % 0 mm 0 W/m2
02:50 -12.6 °C -13.1 °C 34797.9 hPa NNE 7.7 km/h 18.2 km/h 94 % 0 mm 0 W/m2
02:55 -12.7 °C -13.2 °C 34797.9 hPa North 2.6 km/h 18.2 km/h 94 % 0 mm 0 W/m2
03:00 -12.7 °C -13.1 °C 34797.9 hPa NNE 5.1 km/h 20.8 km/h 95 % 0 mm 0 W/m2
03:05 -12.7 °C -13.2 °C 34797.9 hPa NE 7.7 km/h 20.8 km/h 95 % 0 mm 0 W/m2
03:10 -12.8 °C -13.2 °C 34797.9 hPa NNE 7.7 km/h 18.2 km/h 95 % 0 mm 0 W/m2
03:15 -12.8 °C -13.2 °C 34797.9 hPa NE 10.3 km/h 18.2 km/h 95 % 0 mm 0 W/m2
03:20 -12.8 °C -13.2 °C 34797.9 hPa NNE 7.7 km/h 20.8 km/h 95 % 0 mm 0 W/m2
03:25 -12.9 °C -13.3 °C 34797.9 hPa North 7.7 km/h 20.8 km/h 95 % 0 mm 0 W/m2
03:30 -12.8 °C -13.1 °C 34797.9 hPa NNE 5.1 km/h 28.5 km/h 96 % 0 mm 0 W/m2
03:35 -12.7 °C -13.1 °C 34797.9 hPa NE 10.3 km/h 28.5 km/h 96 % 0 mm 0 W/m2
03:40 -12.7 °C -13 °C 34797.9 hPa North 12.9 km/h 23.3 km/h 96 % 0 mm 0 W/m2
03:45 -12.7 °C -13.1 °C 34797.9 hPa ENE 10.3 km/h 23.3 km/h 96 % 0 mm 0 W/m2
03:50 -12.7 °C -13 °C 34797.9 hPa NE 10.3 km/h 31.1 km/h 96 % 0 mm 0 W/m2
03:55 -12.7 °C -13 °C 34797.9 hPa NNE 5.1 km/h 31.1 km/h 96 % 0 mm 0 W/m2
04:00 -12.6 °C -12.9 °C 34797.9 hPa North 18.2 km/h 20.8 km/h 96 % 0 mm 0 W/m2
04:05 -12.6 °C -12.9 °C 34797.9 hPa NNE 7.7 km/h 20.8 km/h 96 % 0 mm 0 W/m2
04:10 -12.5 °C -12.8 °C 34808.1 hPa NE 12.9 km/h 23.3 km/h 96 % 0 mm 0 W/m2
04:15 -12.4 °C -12.7 °C 34808.1 hPa NNW 15.6 km/h 25.9 km/h 96 % 0 mm 0 W/m2
04:20 -12.3 °C -12.7 °C 34808.1 hPa NE 7.7 km/h 25.9 km/h 96 % 0 mm 0 W/m2
04:25 -12.3 °C -12.6 °C 34808.1 hPa NE 20.8 km/h 33.6 km/h 96 % 0 mm 0 W/m2
04:30 -12.3 °C -12.6 °C 34808.1 hPa ENE 10.3 km/h 33.6 km/h 96 % 0 mm 0 W/m2
04:35 -12.2 °C -12.6 °C 34808.1 hPa ENE 12.9 km/h 31.1 km/h 95 % 0 mm 0 W/m2
04:40 -12.2 °C -12.6 °C 34808.1 hPa NE 12.9 km/h 31.1 km/h 95 % 0 mm 0 W/m2
04:45 -12.1 °C -12.6 °C 34808.1 hPa NNE 7.7 km/h 28.5 km/h 95 % 0 mm 0 W/m2
04:50 -12.1 °C -12.5 °C 34808.1 hPa East 7.7 km/h 28.5 km/h 95 % 0 mm 0 W/m2
04:55 -12.1 °C -12.5 °C 34808.1 hPa ENE 18.2 km/h 28.5 km/h 95 % 0 mm 0 W/m2
05:00 -12.1 °C -12.5 °C 34808.1 hPa NE 15.6 km/h 28.5 km/h 95 % 0 mm 0 W/m2
05:05 -12.1 °C -12.6 °C 34808.1 hPa NE 5.1 km/h 28.5 km/h 94 % 0 mm 0 W/m2
05:10 -12.1 °C -12.7 °C 34808.1 hPa NNE 7.7 km/h 23.3 km/h 94 % 0 mm 0 W/m2
05:15 -12.2 °C -12.7 °C 34808.1 hPa NE 10.3 km/h 23.3 km/h 94 % 0 mm 0 W/m2
05:25 -12.2 °C -12.7 °C 34808.1 hPa NE 5.1 km/h 25.9 km/h 94 % 0 mm 0 W/m2
05:30 -12.2 °C -12.7 °C 34808.1 hPa NNE 10.3 km/h 25.9 km/h 94 % 0 mm 0 W/m2
05:35 -12.3 °C -12.8 °C 34808.1 hPa NNE 10.3 km/h 25.9 km/h 94 % 0 mm 0 W/m2
05:40 -12.3 °C -12.8 °C 34808.1 hPa NE 5.1 km/h 20.8 km/h 94 % 0 mm 0 W/m2
05:45 -12.3 °C -12.8 °C 34808.1 hPa NE 10.3 km/h 20.8 km/h 94 % 0 mm 0 W/m2
05:50 -12.3 °C -12.8 °C 34808.1 hPa ENE 5.1 km/h 15.6 km/h 94 % 0 mm 0 W/m2
05:55 -12.3 °C -12.8 °C 34808.1 hPa North 7.7 km/h 15.6 km/h 94 % 0 mm 0 W/m2
06:00 -12.2 °C -12.7 °C 34808.1 hPa North 7.7 km/h 18.2 km/h 95 % 0 mm 0 W/m2
06:05 -12.2 °C -12.7 °C 34808.1 hPa NNE 5.1 km/h 18.2 km/h 94 % 0 mm 0 W/m2
06:10 -12.2 °C -12.7 °C 34808.1 hPa NNE 7.7 km/h 15.6 km/h 94 % 0 mm 0 W/m2
06:15 -12.1 °C -12.7 °C 34808.1 hPa NE 18.2 km/h 18.2 km/h 94 % 0 mm 0 W/m2
06:20 -12.1 °C -12.6 °C 34808.1 hPa NNE 10.3 km/h 23.3 km/h 94 % 0 mm 0 W/m2
06:25 -12.1 °C -12.6 °C 34808.1 hPa NNE 10.3 km/h 23.3 km/h 94 % 0 mm 0 W/m2
06:30 -12.1 °C -12.6 °C 34808.1 hPa NE 10.3 km/h 20.8 km/h 94 % 0 mm 0 W/m2
06:35 -12.1 °C -12.6 °C 34808.1 hPa Calm   20.8 km/h 94 % 0 mm 0 W/m2
06:40 -12.1 °C -12.6 °C 34808.1 hPa NNE 7.7 km/h 12.9 km/h 94 % 0 mm 0 W/m2
06:45 -12.1 °C -12.6 °C 34808.1 hPa NNE 12.9 km/h 15.6 km/h 94 % 0 mm 0 W/m2
06:50 -12.1 °C -12.6 °C 34808.1 hPa North 7.7 km/h 20.8 km/h 94 % 0 mm 0 W/m2
06:55 -12.1 °C -12.6 °C 34808.1 hPa NE 12.9 km/h 20.8 km/h 94 % 0 mm 0 W/m2
07:00 -12 °C -12.5 °C 34808.1 hPa NNE 5.1 km/h 20.8 km/h 94 % 0 mm 0 W/m2
07:05 -12 °C -12.5 °C 34808.1 hPa NNE 5.1 km/h 20.8 km/h 94 % 0 mm 0 W/m2
07:10 -12 °C -12.5 °C 34808.1 hPa NNE 2.6 km/h 15.6 km/h 94 % 0 mm 0 W/m2
07:15 -12 °C -12.5 °C 34808.1 hPa NE 15.6 km/h 15.6 km/h 94 % 0 mm 0 W/m2
07:20 -12.1 °C -12.6 °C 34808.1 hPa NNE 5.1 km/h 20.8 km/h 94 % 0 mm 0 W/m2
07:25 -12.1 °C -12.6 °C 34808.1 hPa NNE 7.7 km/h 20.8 km/h 94 % 0 mm 0 W/m2
07:30 -12.2 °C -12.7 °C 34808.1 hPa Calm   15.6 km/h 94 % 0 mm 0 W/m2
07:35 -12.3 °C -12.8 °C 34808.1 hPa Calm   12.9 km/h 94 % 0 mm 0 W/m2
07:40 -12.4 °C -12.9 °C 34818.2 hPa NE 2.6 km/h 12.9 km/h 94 % 0 mm 0 W/m2
07:45 -12.4 °C -12.9 °C 34818.2 hPa NNE 2.6 km/h 12.9 km/h 95 % 0 mm 5 W/m2
07:50 -12.6 °C -13 °C 34818.2 hPa NNE 7.7 km/h 12.9 km/h 95 % 0 mm 7 W/m2
07:55 -12.6 °C -13 °C 34818.2 hPa NE 5.1 km/h 15.6 km/h 95 % 0 mm 11 W/m2
08:00 -12.6 °C -13 °C 34818.2 hPa North 5.1 km/h 15.6 km/h 95 % 0 mm 18 W/m2
08:05 -12.6 °C -13.1 °C 34818.2 hPa NNE 2.6 km/h 12.9 km/h 95 % 0 mm 18 W/m2
08:10 -12.5 °C -12.8 °C 34831.8 hPa NNE 18.2 km/h 18.2 km/h 96 % 0 mm 18 W/m2
08:15 -12.4 °C -12.8 °C 34831.8 hPa NNE 10.3 km/h 18.2 km/h 96 % 0 mm 32 W/m2
08:20 -12.4 °C -12.8 °C 34831.8 hPa North 5.1 km/h 23.3 km/h 96 % 0 mm 42 W/m2
08:30 -12.4 °C -12.7 °C 34831.8 hPa NNE 12.9 km/h 18.2 km/h 96 % 0 mm 51 W/m2
08:35 -12.3 °C -12.6 °C 34841.9 hPa NNW 2.6 km/h 18.2 km/h 96 % 0 mm 56 W/m2
08:40 -12.1 °C -12.4 °C 34841.9 hPa NNE 5.1 km/h 18.2 km/h 96 % 0 mm 62 W/m2
08:45 -12.1 °C -12.4 °C 34841.9 hPa NNE 15.6 km/h 18.2 km/h 96 % 0 mm 65 W/m2
08:50 -11.9 °C -12.3 °C 34841.9 hPa NNE 20.8 km/h 20.8 km/h 96 % 0 mm 67 W/m2
08:55 -11.8 °C -12.2 °C 34841.9 hPa NE 7.7 km/h 28.5 km/h 96 % 0 mm 65 W/m2
09:00 -11.8 °C -12.1 °C 34841.9 hPa NNW 7.7 km/h 28.5 km/h 96 % 0 mm 70 W/m2
09:05 -11.8 °C -12.2 °C 34841.9 hPa North 7.7 km/h 23.3 km/h 95 % 0 mm 77 W/m2
09:10 -11.7 °C -12.1 °C 34841.9 hPa NE 10.3 km/h 23.3 km/h 95 % 0 mm 74 W/m2
09:15 -11.6 °C -12.1 °C 34852.1 hPa NE 10.3 km/h 23.3 km/h 95 % 0 mm 77 W/m2
09:20 -11.6 °C -12.1 °C 34852.1 hPa Calm   23.3 km/h 94 % 0 mm 84 W/m2
09:25 -11.6 °C -12.1 °C 34852.1 hPa ENE 7.7 km/h 23.3 km/h 94 % 0 mm 86 W/m2
09:30 -11.6 °C -12.2 °C 34852.1 hPa ENE 18.2 km/h 23.3 km/h 93 % 0 mm 97 W/m2
09:35 -11.5 °C -12.1 °C 34852.1 hPa NE 2.6 km/h 20.8 km/h 93 % 0 mm 109 W/m2
09:40 -11.4 °C -12.1 °C 34852.1 hPa NNE 10.3 km/h 18.2 km/h 93 % 0 mm 128 W/m2
09:45 -11.3 °C -12.1 °C 34852.1 hPa NE 12.9 km/h 20.8 km/h 92 % 0 mm 155 W/m2
09:50 -11.3 °C -12 °C 34852.1 hPa NNE 7.7 km/h 20.8 km/h 92 % 0 mm 155 W/m2
09:55 -11.2 °C -11.9 °C 34852.1 hPa North 10.3 km/h 20.8 km/h 92 % 0 mm 144 W/m2
10:00 -11.2 °C -11.9 °C 34852.1 hPa North 7.7 km/h 23.3 km/h 91 % 0 mm 153 W/m2
10:05 -11.2 °C -11.9 °C 34852.1 hPa North 5.1 km/h 23.3 km/h 91 % 0 mm 163 W/m2
10:10 -11.1 °C -11.9 °C 34852.1 hPa North 7.7 km/h 28.5 km/h 91 % 0 mm 169 W/m2
10:15 -11 °C -11.8 °C 34852.1 hPa NNW 7.7 km/h 28.5 km/h 91 % 0 mm 169 W/m2
10:20 -11 °C -11.8 °C 34865.6 hPa North 10.3 km/h 23.3 km/h 91 % 0 mm 183 W/m2
10:30 -10.9 °C -11.8 °C 34865.6 hPa NNE 5.1 km/h 28.5 km/h 90 % 0 mm 190 W/m2
10:35 -10.9 °C -11.8 °C 34865.6 hPa NNE 15.6 km/h 28.5 km/h 90 % 0 mm 209 W/m2
10:40 -10.8 °C -11.7 °C 34865.6 hPa North 28.5 km/h 31.1 km/h 90 % 0 mm 213 W/m2
10:45 -10.8 °C -11.8 °C 34865.6 hPa NNW 20.8 km/h 31.1 km/h 89 % 0 mm 243 W/m2
10:50 -10.8 °C -11.8 °C 34865.6 hPa NNW 10.3 km/h 33.6 km/h 89 % 0 mm 253 W/m2
10:55 -10.7 °C -11.6 °C 34865.6 hPa NNE 7.7 km/h 33.6 km/h 89 % 0 mm 299 W/m2
11:00 -10.6 °C -11.7 °C 34865.6 hPa NE 25.9 km/h 33.6 km/h 88 % 0 mm 295 W/m2
11:05 -10.6 °C -11.7 °C 34875.8 hPa North 18.2 km/h 33.6 km/h 88 % 0 mm 257 W/m2
11:10 -10.5 °C -11.6 °C 34875.8 hPa North 7.7 km/h 41.4 km/h 88 % 0 mm 246 W/m2
11:15 -10.4 °C -11.5 °C 34875.8 hPa NNE 20.8 km/h 41.4 km/h 88 % 0 mm 178 W/m2
11:20 -10.4 °C -11.6 °C 34875.8 hPa NNE 7.7 km/h 31.1 km/h 88 % 0 mm 213 W/m2
11:25 -10.4 °C -11.4 °C 34875.8 hPa North 10.3 km/h 31.1 km/h 88 % 0 mm 218 W/m2
11:30 -10.3 °C -11.5 °C 34875.8 hPa NNE 23.3 km/h 25.9 km/h 87 % 0 mm 223 W/m2
11:35 -10.4 °C -11.6 °C 34875.8 hPa NNE 7.7 km/h 28.5 km/h 87 % 0 mm 120 W/m2
11:40 -10.4 °C -11.7 °C 34875.8 hPa NE 15.6 km/h 28.5 km/h 87 % 0 mm 134 W/m2
11:45 -10.5 °C -11.7 °C 34865.6 hPa NE 7.7 km/h 31.1 km/h 87 % 0 mm 206 W/m2
11:50 -10.4 °C -11.5 °C 34865.6 hPa NNE 20.8 km/h 31.1 km/h 88 % 0 mm 216 W/m2
11:55 -10.3 °C -11.5 °C 34865.6 hPa NNE 15.6 km/h 25.9 km/h 87 % 0 mm 243 W/m2
12:00 -10.3 °C -11.6 °C 34875.8 hPa North 15.6 km/h 36.2 km/h 86 % 0 mm 118 W/m2
12:05 -10.4 °C -11.7 °C 34875.8 hPa NNE 33.6 km/h 36.2 km/h 86 % 0 mm 206 W/m2
12:10 -10.4 °C -11.7 °C 34875.8 hPa NE 23.3 km/h 33.6 km/h 86 % 0 mm 220 W/m2
12:15 -10.2 °C -11.4 °C 34875.8 hPa NNE 15.6 km/h 33.6 km/h 87 % 0 mm 327 W/m2
12:16 -10.1 °C -11.3 °C 34875.8 hPa NNE 23.3 km/h 23.3 km/h 87 % 0 mm 308 W/m2
12:17 -10.1 °C -11.3 °C 34875.8 hPa North 36.2 km/h 36.2 km/h 86 % 0 mm 279 W/m2
12:18 -10.1 °C -11.5 °C 34875.8 hPa NE 31.1 km/h 36.2 km/h 85 % 0 mm 285 W/m2
12:19 -10.1 °C -11.5 °C 34875.8 hPa NE 20.8 km/h 36.2 km/h 85 % 0 mm 307 W/m2
12:20 -10.1 °C -11.4 °C 34875.8 hPa NE 25.9 km/h 36.2 km/h 85 % 0 mm 329 W/m2
12:21 -10.1 °C -11.4 °C 34875.8 hPa NE 25.9 km/h 36.2 km/h 85 % 0 mm 348 W/m2
12:22 -10.1 °C -11.6 °C 34875.8 hPa NNE 25.9 km/h 36.2 km/h 84 % 0 mm 362 W/m2
12:32 -10.1 °C -11.4 °C 34865.6 hPa NNE 25.9 km/h 36.2 km/h 85 % 0 mm 362 W/m2
12:40 -9.1 °C -11.1 °C 34852.1 hPa ENE 10.3 km/h 28.5 km/h 80 % 0 mm 735 W/m2
12:45 -9.1 °C -11.1 °C 34852.1 hPa ENE 10.3 km/h 28.5 km/h 79 % 0 mm 807 W/m2
12:50 -9.2 °C -11.3 °C 34852.1 hPa NNE 5.1 km/h 28.5 km/h 78 % 0 mm 315 W/m2
12:55 -9.5 °C -11.6 °C 34852.1 hPa NNE 10.3 km/h 25.9 km/h 78 % 0 mm 260 W/m2
13:00 -9.3 °C -11.3 °C 34852.1 hPa NNW 5.1 km/h 25.9 km/h 80 % 0 mm 341 W/m2
13:05 -9 °C -11 °C 34852.1 hPa East 23.3 km/h 25.9 km/h 79 % 0 mm 469 W/m2
13:10 -8.7 °C -11.2 °C 34852.1 hPa ENE 12.9 km/h 31.1 km/h 74 % 0 mm 768 W/m2
13:15 -9 °C -11.4 °C 34852.1 hPa NE 10.3 km/h 31.1 km/h 75 % 0 mm 255 W/m2
13:20 -8.7 °C -11 °C 34852.1 hPa NE 7.7 km/h 28.5 km/h 77 % 0 mm 868 W/m2
13:25 -8.4 °C -10.9 °C 34852.1 hPa NE 18.2 km/h 33.6 km/h 74 % 0 mm 772 W/m2
13:30 -8.3 °C -11.2 °C 34852.1 hPa NE 18.2 km/h 33.6 km/h 72 % 0 mm 830 W/m2
13:35 -8.6 °C -11.4 °C 34852.1 hPa NE 25.9 km/h 33.6 km/h 72 % 0 mm 334 W/m2
13:40 -8.8 °C -11.4 °C 34852.1 hPa NNE 7.7 km/h 33.6 km/h 74 % 0 mm 301 W/m2
13:45 -8.4 °C -11.3 °C 34852.1 hPa ENE 15.6 km/h 33.6 km/h 71 % 0 mm 330 W/m2
13:50 -8.6 °C -11.3 °C 34852.1 hPa ENE 18.2 km/h 28.5 km/h 73 % 0 mm 874 W/m2
13:55 -8 °C -11.1 °C 34852.1 hPa NNE 5.1 km/h 33.6 km/h 70 % 0 mm 809 W/m2
14:00 -7.9 °C -11.2 °C 34852.1 hPa North 12.9 km/h 33.6 km/h 69 % 0 mm 847 W/m2
14:05 -8 °C -11.4 °C 34841.9 hPa East 7.7 km/h 33.6 km/h 67 % 0 mm 851 W/m2
14:10 -8.1 °C -11.4 °C 34841.9 hPa ENE 10.3 km/h 38.8 km/h 68 % 0 mm 858 W/m2
14:15 -8 °C -11.4 °C 34841.9 hPa North 25.9 km/h 38.8 km/h 67 % 0 mm 784 W/m2
14:20 -8 °C -11.3 °C 34841.9 hPa NE 10.3 km/h 33.6 km/h 68 % 0 mm 784 W/m2
14:25 -7.7 °C -11.2 °C 34841.9 hPa NNE 15.6 km/h 33.6 km/h 67 % 0 mm 830 W/m2
14:35 -7.6 °C -11.1 °C 34841.9 hPa North 31.1 km/h 36.2 km/h 66 % 0 mm 911 W/m2
14:40 -7.7 °C -11.5 °C 34831.8 hPa NNE 7.7 km/h 36.2 km/h 64 % 0 mm 246 W/m2
14:45 -7.8 °C -11.1 °C 34831.8 hPa North 12.9 km/h 41.4 km/h 68 % 0 mm 823 W/m2
14:55 -7.3 °C -11.9 °C 34831.8 hPa NE 33.6 km/h 44.1 km/h 59 % 0 mm 345 W/m2
15:00 -8.1 °C -12.6 °C 34831.8 hPa East 20.8 km/h 44.1 km/h 59 % 0 mm 330 W/m2
15:05 -8.3 °C -12.5 °C 34831.8 hPa NE 7.7 km/h 44.1 km/h 61 % 0 mm 197 W/m2
15:10 -7.9 °C -12 °C 34831.8 hPa East 28.5 km/h 33.6 km/h 62 % 0 mm 765 W/m2
15:15 -7.4 °C -11.3 °C 34831.8 hPa NNE 5.1 km/h 36.2 km/h 64 % 0 mm 707 W/m2
15:20 -7.7 °C -11.8 °C 34831.8 hPa NE 20.8 km/h 36.2 km/h 62 % 0 mm 169 W/m2
15:25 -8.3 °C -12.2 °C 34831.8 hPa North 23.3 km/h 38.8 km/h 63 % 0 mm 167 W/m2
15:30 -8.6 °C -12.3 °C 34831.8 hPa NNE 18.2 km/h 38.8 km/h 65 % 0 mm 192 W/m2
15:35 -8.7 °C -11.8 °C 34831.8 hPa NNE 7.7 km/h 33.6 km/h 69 % 0 mm 271 W/m2
15:40 -8.1 °C -11.7 °C 34831.8 hPa East 5.1 km/h 33.6 km/h 66 % 0 mm 744 W/m2
15:45 -7.5 °C -11.3 °C 34818.2 hPa NNE 12.9 km/h 33.6 km/h 64 % 0 mm 190 W/m2
15:50 -8.1 °C -12.3 °C 34818.2 hPa NE 10.3 km/h 41.4 km/h 61 % 0 mm 120 W/m2
15:55 -8.4 °C -12.1 °C 34818.2 hPa NNW 7.7 km/h 41.4 km/h 65 % 0 mm 710 W/m2
16:00 -7.6 °C -12.3 °C 34818.2 hPa NE 20.8 km/h 41.4 km/h 58 % 0 mm 793 W/m2
16:05 -7.4 °C -12.4 °C 34818.2 hPa NNE 18.2 km/h 44.1 km/h 56 % 0 mm 534 W/m2
16:10 -7.7 °C -12.3 °C 34818.2 hPa East 20.8 km/h 44.1 km/h 58 % 0 mm 499 W/m2
16:15 -8.2 °C -12.6 °C 34818.2 hPa NE 23.3 km/h 38.8 km/h 60 % 0 mm 149 W/m2
16:20 -7.9 °C -11.5 °C 34818.2 hPa NE 28.5 km/h 36.2 km/h 66 % 0 mm 642 W/m2
16:25 -7.7 °C -12.4 °C 34818.2 hPa NE 7.7 km/h 33.6 km/h 58 % 0 mm 626 W/m2
16:30 -7.6 °C -12.6 °C 34818.2 hPa NE 12.9 km/h 36.2 km/h 56 % 0 mm 640 W/m2
16:35 -7.4 °C -12.6 °C 34808.1 hPa ENE 10.3 km/h 38.8 km/h 55 % 0 mm 680 W/m2
16:40 -7.3 °C -12.8 °C 34808.1 hPa NNE 12.9 km/h 41.4 km/h 53 % 0 mm 707 W/m2
16:45 -7.9 °C -13.5 °C 34808.1 hPa NNE 31.1 km/h 41.4 km/h 52 % 0 mm 151 W/m2
16:50 -7.8 °C -13.1 °C 34808.1 hPa NNE 18.2 km/h 36.2 km/h 54 % 0 mm 587 W/m2
16:55 -7.7 °C -12.9 °C 34808.1 hPa NNE 10.3 km/h 33.6 km/h 54 % 0 mm 673 W/m2
17:00 -7.6 °C -12.7 °C 34808.1 hPa North 18.2 km/h 36.2 km/h 55 % 0 mm 172 W/m2
17:10 -8 °C -12.9 °C 34808.1 hPa NE 2.6 km/h 36.2 km/h 56 % 0 mm 543 W/m2
17:15 -7.8 °C -12.7 °C 34808.1 hPa ENE 12.9 km/h 36.2 km/h 56 % 0 mm 480 W/m2
17:20 -8.1 °C -13 °C 34808.1 hPa NE 10.3 km/h 36.2 km/h 56 % 0 mm 176 W/m2
17:30 -7.7 °C -13.3 °C 34808.1 hPa NE 33.6 km/h 49.2 km/h 52 % 0 mm 111 W/m2
17:35 -8.4 °C -13.4 °C 34808.1 hPa NE 15.6 km/h 49.2 km/h 56 % 0 mm 165 W/m2
17:40 -8.2 °C -12.9 °C 34797.9 hPa NE 12.9 km/h 36.2 km/h 58 % 0 mm 461 W/m2
17:45 -7.9 °C -12.5 °C 34797.9 hPa NE 31.1 km/h 31.1 km/h 58 % 0 mm 504 W/m2
17:50 -7.9 °C -12.6 °C 34797.9 hPa NE 20.8 km/h 44.1 km/h 58 % 0 mm 341 W/m2
17:55 -8 °C -12.4 °C 34797.9 hPa North 7.7 km/h 44.1 km/h 60 % 0 mm 202 W/m2
18:00 -7.8 °C -12.7 °C 34797.9 hPa NE 7.7 km/h 38.8 km/h 57 % 0 mm 257 W/m2
18:05 -8 °C -12.9 °C 34808.1 hPa North 10.3 km/h 41.4 km/h 56 % 0 mm 113 W/m2
18:10 -8.2 °C -12.6 °C 34808.1 hPa ENE 28.5 km/h 41.4 km/h 60 % 0 mm 343 W/m2
18:15 -8.2 °C -12.4 °C 34797.9 hPa NNE 12.9 km/h 41.4 km/h 61 % 0 mm 362 W/m2
18:20 -8 °C -12.4 °C 34797.9 hPa NE 15.6 km/h 31.1 km/h 60 % 0 mm 422 W/m2
18:25 -8.1 °C -12.6 °C 34808.1 hPa NNE 7.7 km/h 46.7 km/h 59 % 0 mm 327 W/m2
18:30 -8.2 °C -12.8 °C 34797.9 hPa NE 7.7 km/h 46.7 km/h 58 % 0 mm 285 W/m2
18:35 -8.3 °C -12.9 °C 34797.9 hPa NNE 31.1 km/h 44.1 km/h 58 % 0 mm 269 W/m2
18:40 -8.4 °C -13 °C 34797.9 hPa NE 31.1 km/h 44.1 km/h 58 % 0 mm 88 W/m2
18:45 -8.8 °C -13.1 °C 34797.9 hPa NNE 18.2 km/h 41.4 km/h 60 % 0 mm 76 W/m2
18:55 -8.7 °C -12.9 °C 34797.9 hPa ENE 23.3 km/h 38.8 km/h 61 % 0 mm 105 W/m2
19:00 -8.7 °C -13.1 °C 34808.1 hPa NNE 12.9 km/h 38.8 km/h 59 % 0 mm 74 W/m2
19:05 -8.7 °C -13.1 °C 34808.1 hPa NNE 31.1 km/h 36.2 km/h 60 % 0 mm 67 W/m2
19:10 -8.8 °C -13.1 °C 34808.1 hPa NNE 18.2 km/h 36.2 km/h 61 % 0 mm 65 W/m2
19:15 -8.9 °C -13.1 °C 34808.1 hPa NE 18.2 km/h 31.1 km/h 61 % 0 mm 63 W/m2
19:20 -9 °C -13.1 °C 34808.1 hPa ENE 18.2 km/h 31.1 km/h 62 % 0 mm 86 W/m2
19:25 -9.1 °C -13.4 °C 34808.1 hPa NNE 15.6 km/h 41.4 km/h 60 % 0 mm 56 W/m2
19:30 -9.2 °C -13.5 °C 34808.1 hPa ENE 12.9 km/h 41.4 km/h 60 % 0 mm 53 W/m2
19:35 -9.3 °C -13.4 °C 34808.1 hPa NNE 25.9 km/h 33.6 km/h 61 % 0 mm 47 W/m2
19:40 -9.4 °C -13.3 °C 34808.1 hPa Calm   33.6 km/h 63 % 0 mm 44 W/m2
19:45 -9.6 °C -13.4 °C 34808.1 hPa NE 15.6 km/h 33.6 km/h 63 % 0 mm 40 W/m2
19:50 -9.6 °C -13.2 °C 34808.1 hPa North 12.9 km/h 28.5 km/h 65 % 0 mm 37 W/m2
19:55 -9.8 °C -13.1 °C 34808.1 hPa North 15.6 km/h 28.5 km/h 67 % 0 mm 33 W/m2
20:00 -9.9 °C -13.1 °C 34808.1 hPa NNE 25.9 km/h 28.5 km/h 68 % 0 mm 30 W/m2
20:05 -9.9 °C -13.2 °C 34808.1 hPa NNE 15.6 km/h 28.5 km/h 68 % 0 mm 28 W/m2
20:10 -10.1 °C -13.3 °C 34808.1 hPa NNE 7.7 km/h 33.6 km/h 68 % 0 mm 25 W/m2
20:15 -10.1 °C -13.3 °C 34808.1 hPa NE 10.3 km/h 36.2 km/h 68 % 0 mm 21 W/m2
20:20 -10.2 °C -13.3 °C 34818.2 hPa NE 15.6 km/h 36.2 km/h 69 % 0 mm 18 W/m2
20:25 -10.3 °C -13.3 °C 34818.2 hPa NNE 5.1 km/h 28.5 km/h 70 % 0 mm 14 W/m2
20:30 -10.5 °C -13.3 °C 34818.2 hPa North 18.2 km/h 31.1 km/h 72 % 0 mm 11 W/m2
20:35 -10.6 °C -13.2 °C 34818.2 hPa North 10.3 km/h 31.1 km/h 73 % 0 mm 9 W/m2
20:40 -10.7 °C -13.3 °C 34818.2 hPa ENE 10.3 km/h 28.5 km/h 73 % 0 mm 5 W/m2
20:45 -10.7 °C -13.3 °C 34818.2 hPa North 10.3 km/h 31.1 km/h 74 % 0 mm 0 W/m2
20:50 -10.8 °C -13.3 °C 34831.8 hPa NNW 5.1 km/h 31.1 km/h 74 % 0 mm 0 W/m2
20:55 -10.8 °C -13.3 °C 34831.8 hPa NNE 5.1 km/h 31.1 km/h 74 % 0 mm 0 W/m2
21:00 -10.9 °C -13.3 °C 34831.8 hPa NNW 5.1 km/h 31.1 km/h 75 % 0 mm 0 W/m2
21:05 -11 °C -13.4 °C 34831.8 hPa North 7.7 km/h 33.6 km/h 75 % 0 mm 0 W/m2
21:10 -11 °C -13.3 °C 34831.8 hPa NNW 10.3 km/h 33.6 km/h 76 % 0 mm 0 W/m2
21:15 -11.1 °C -13.3 °C 34841.9 hPa ENE 23.3 km/h 36.2 km/h 76 % 0 mm 0 W/m2
21:20 -11.2 °C -13.4 °C 34841.9 hPa NNW 7.7 km/h 36.2 km/h 76 % 0 mm 0 W/m2
21:25 -11.2 °C -13.4 °C 34841.9 hPa North 15.6 km/h 31.1 km/h 76 % 0 mm 0 W/m2
21:30 -11.3 °C -13.4 °C 34841.9 hPa NNE 10.3 km/h 33.6 km/h 77 % 0 mm 0 W/m2
21:35 -11.4 °C -13.6 °C 34841.9 hPa North 7.7 km/h 33.6 km/h 77 % 0 mm 0 W/m2
21:40 -11.5 °C -13.6 °C 34841.9 hPa North 12.9 km/h 36.2 km/h 78 % 0 mm 0 W/m2
21:45 -11.5 °C -13.6 °C 34852.1 hPa NNE 23.3 km/h 36.2 km/h 78 % 0 mm 0 W/m2
21:50 -11.6 °C -13.6 °C 34852.1 hPa North 7.7 km/h 28.5 km/h 78 % 0 mm 0 W/m2
21:55 -11.6 °C -13.6 °C 34852.1 hPa NNE 10.3 km/h 23.3 km/h 78 % 0 mm 0 W/m2
22:00 -11.6 °C -13.7 °C 34852.1 hPa North 18.2 km/h 36.2 km/h 78 % 0 mm 0 W/m2
22:05 -11.6 °C -13.6 °C 34852.1 hPa North 12.9 km/h 36.2 km/h 78 % 0 mm 0 W/m2
22:10 -11.6 °C -13.7 °C 34852.1 hPa NNE 5.1 km/h 28.5 km/h 78 % 0 mm 0 W/m2
22:15 -11.7 °C -13.7 °C 34865.6 hPa North 20.8 km/h 28.5 km/h 78 % 0 mm 0 W/m2
22:20 -11.8 °C -13.8 °C 34865.6 hPa North 10.3 km/h 28.5 km/h 78 % 0 mm 0 W/m2
22:25 -11.8 °C -13.9 °C 34865.6 hPa NE 10.3 km/h 31.1 km/h 78 % 0 mm 0 W/m2
22:30 -12 °C -13.9 °C 34865.6 hPa NNW 12.9 km/h 31.1 km/h 79 % 0 mm 0 W/m2
22:35 -11.9 °C -13.9 °C 34865.6 hPa North 18.2 km/h 31.1 km/h 79 % 0 mm 0 W/m2
22:40 -12 °C -13.9 °C 34865.6 hPa NNW 18.2 km/h 31.1 km/h 79 % 0 mm 0 W/m2
22:45 -12.1 °C -14 °C 34865.6 hPa ENE 7.7 km/h 28.5 km/h 79 % 0 mm 0 W/m2
22:50 -12.2 °C -14 °C 34865.6 hPa North 15.6 km/h 28.5 km/h 80 % 0 mm 0 W/m2
22:55 -12.2 °C -13.9 °C 34865.6 hPa North 12.9 km/h 25.9 km/h 81 % 0 mm 0 W/m2
23:00 -12.3 °C -14 °C 34865.6 hPa North 23.3 km/h 31.1 km/h 81 % 0 mm 0 W/m2
23:05 -12.3 °C -14.1 °C 34865.6 hPa North 25.9 km/h 31.1 km/h 81 % 0 mm 0 W/m2
23:10 -12.3 °C -14 °C 34865.6 hPa ENE 10.3 km/h 36.2 km/h 82 % 0 mm 0 W/m2
23:15 -12.4 °C -14.1 °C 34865.6 hPa NNE 20.8 km/h 36.2 km/h 82 % 0 mm 0 W/m2
23:20 -12.4 °C -13.9 °C 34865.6 hPa North 23.3 km/h 25.9 km/h 83 % 0 mm 0 W/m2
23:25 -12.6 °C -14.1 °C 34865.6 hPa North 7.7 km/h 28.5 km/h 83 % 0 mm 0 W/m2
23:30 -12.7 °C -14.1 °C 34865.6 hPa North 23.3 km/h 28.5 km/h 84 % 0 mm 0 W/m2
23:35 -12.7 °C -14.1 °C 34865.6 hPa NNE 10.3 km/h 28.5 km/h 84 % 0 mm 0 W/m2
23:40 -12.7 °C -14.1 °C 34865.6 hPa NE 10.3 km/h 23.3 km/h 84 % 0 mm 0 W/m2
23:45 -12.7 °C -14.1 °C 34865.6 hPa NNW 2.6 km/h 20.8 km/h 84 % 0 mm 0 W/m2
23:50 -12.7 °C -14.2 °C 34865.6 hPa Calm   20.8 km/h 84 % 0 mm 0 W/m2
23:55 -12.8 °C -14.3 °C 34865.6 hPa NE 5.1 km/h 20.8 km/h 84 % 0 mm 0 W/m2
Avec l'autorisation de Weather Underground - 1.75 mb